sensor_id;sensor_type;location;lat;lon;timestamp;pressure;altitude;pressure_sealevel;temperature
68911;BMP180;55953;51.650;-0.522;2022-08-01T00:01:14;100968.80;;;20.20
68911;BMP180;55953;51.650;-0.522;2022-08-01T00:03:42;100974.40;;;20.20
68911;BMP180;55953;51.650;-0.522;2022-08-01T00:06:10;100972.80;;;20.20
68911;BMP180;55953;51.650;-0.522;2022-08-01T00:08:37;100967.40;;;20.26
68911;BMP180;55953;51.650;-0.522;2022-08-01T00:11:05;100968.80;;;20.20
68911;BMP180;55953;51.650;-0.522;2022-08-01T00:13:33;100974.40;;;20.20
68911;BMP180;55953;51.650;-0.522;2022-08-01T00:16:01;100974.20;;;20.10
68911;BMP180;55953;51.650;-0.522;2022-08-01T00:18:29;100973.00;;;20.00
68911;BMP180;55953;51.650;-0.522;2022-08-01T00:20:56;100970.60;;;20.00
68911;BMP180;55953;51.650;-0.522;2022-08-01T00:23:24;100964.80;;;20.00
68911;BMP180;55953;51.650;-0.522;2022-08-01T00:25:52;100971.80;;;19.92
68911;BMP180;55953;51.650;-0.522;2022-08-01T00:28:20;100977.60;;;19.92
68911;BMP180;55953;51.650;-0.522;2022-08-01T00:30:48;100970.60;;;19.90
68911;BMP180;55953;51.650;-0.522;2022-08-01T00:33:16;100966.40;;;19.92
68911;BMP180;55953;51.650;-0.522;2022-08-01T00:35:43;100968.20;;;19.90
68911;BMP180;55953;51.650;-0.522;2022-08-01T00:38:11;100967.60;;;19.90
68911;BMP180;55953;51.650;-0.522;2022-08-01T00:40:39;100964.20;;;19.80
68911;BMP180;55953;51.650;-0.522;2022-08-01T00:43:07;100965.60;;;19.80
68911;BMP180;55953;51.650;-0.522;2022-08-01T00:45:35;100962.20;;;19.80
68911;BMP180;55953;51.650;-0.522;2022-08-01T00:48:03;100964.00;;;19.72
68911;BMP180;55953;51.650;-0.522;2022-08-01T00:50:31;100966.60;;;19.70
68911;BMP180;55953;51.650;-0.522;2022-08-01T00:52:59;100966.00;;;19.70
68911;BMP180;55953;51.650;-0.522;2022-08-01T00:55:28;100965.20;;;19.60
68911;BMP180;55953;51.650;-0.522;2022-08-01T00:57:57;100965.00;;;19.60
68911;BMP180;55953;51.650;-0.522;2022-08-01T01:00:35;100973.60;;;19.50
68911;BMP180;55953;51.650;-0.522;2022-08-01T01:03:22;100976.20;;;19.50
68911;BMP180;55953;51.650;-0.522;2022-08-01T01:06:25;100975.00;;;19.50
68911;BMP180;55953;51.650;-0.522;2022-08-01T01:12:24;100981.80;;;19.40
68911;BMP180;55953;51.650;-0.522;2022-08-01T01:15:10;100979.20;;;19.40
68911;BMP180;55953;51.650;-0.522;2022-08-01T01:18:00;100976.20;;;19.40
68911;BMP180;55953;51.650;-0.522;2022-08-01T01:20:34;100981.80;;;19.40
68911;BMP180;55953;51.650;-0.522;2022-08-01T01:29:35;100981.60;;;19.40
68911;BMP180;55953;51.650;-0.522;2022-08-01T01:32:38;100982.20;;;19.40
68911;BMP180;55953;51.650;-0.522;2022-08-01T01:35:24;100979.00;;;19.40
68911;BMP180;55953;51.650;-0.522;2022-08-01T01:38:05;100979.40;;;19.30
68911;BMP180;55953;51.650;-0.522;2022-08-01T01:40:36;100981.80;;;19.30
68911;BMP180;55953;51.650;-0.522;2022-08-01T01:43:10;100982.40;;;19.30
68911;BMP180;55953;51.650;-0.522;2022-08-01T01:45:40;100976.80;;;19.30
68911;BMP180;55953;51.650;-0.522;2022-08-01T01:48:10;100971.60;;;19.30
68911;BMP180;55953;51.650;-0.522;2022-08-01T01:50:42;100969.40;;;19.40
68911;BMP180;55953;51.650;-0.522;2022-08-01T01:53:14;100973.20;;;19.30
68911;BMP180;55953;51.650;-0.522;2022-08-01T01:55:47;100966.40;;;19.30
68911;BMP180;55953;51.650;-0.522;2022-08-01T01:58:18;100963.20;;;19.30
68911;BMP180;55953;51.650;-0.522;2022-08-01T02:00:49;100964.00;;;19.30
68911;BMP180;55953;51.650;-0.522;2022-08-01T02:03:20;100965.80;;;19.30
68911;BMP180;55953;51.650;-0.522;2022-08-01T02:05:51;100967.20;;;19.30
68911;BMP180;55953;51.650;-0.522;2022-08-01T02:08:21;100968.80;;;19.26
68911;BMP180;55953;51.650;-0.522;2022-08-01T02:10:52;100965.20;;;19.20
68911;BMP180;55953;51.650;-0.522;2022-08-01T02:13:41;100965.60;;;19.20
68911;BMP180;55953;51.650;-0.522;2022-08-01T02:16:10;100967.80;;;19.20
68911;BMP180;55953;51.650;-0.522;2022-08-01T02:18:38;100968.00;;;19.20
68911;BMP180;55953;51.650;-0.522;2022-08-01T02:21:12;100962.40;;;19.10
68911;BMP180;55953;51.650;-0.522;2022-08-01T02:23:42;100960.00;;;19.18
68911;BMP180;55953;51.650;-0.522;2022-08-01T02:26:15;100960.20;;;19.10
68911;BMP180;55953;51.650;-0.522;2022-08-01T02:28:59;100953.00;;;19.10
68911;BMP180;55953;51.650;-0.522;2022-08-01T02:31:35;100954.00;;;19.20
68911;BMP180;55953;51.650;-0.522;2022-08-01T02:34:10;100952.60;;;19.20
68911;BMP180;55953;51.650;-0.522;2022-08-01T02:36:40;100956.40;;;19.20
68911;BMP180;55953;51.650;-0.522;2022-08-01T02:39:11;100957.40;;;19.20
68911;BMP180;55953;51.650;-0.522;2022-08-01T02:41:43;100952.00;;;19.20
68911;BMP180;55953;51.650;-0.522;2022-08-01T02:44:23;100951.20;;;19.20
68911;BMP180;55953;51.650;-0.522;2022-08-01T02:46:56;100944.40;;;19.10
68911;BMP180;55953;51.650;-0.522;2022-08-01T02:49:26;100943.20;;;19.10
68911;BMP180;55953;51.650;-0.522;2022-08-01T02:51:57;100939.20;;;19.10
68911;BMP180;55953;51.650;-0.522;2022-08-01T02:54:26;100934.20;;;19.00
68911;BMP180;55953;51.650;-0.522;2022-08-01T02:56:56;100937.00;;;19.00
68911;BMP180;55953;51.650;-0.522;2022-08-01T02:59:27;100940.00;;;18.94
68911;BMP180;55953;51.650;-0.522;2022-08-01T03:01:59;100939.40;;;18.90
68911;BMP180;55953;51.650;-0.522;2022-08-01T03:04:33;100946.80;;;18.82
68911;BMP180;55953;51.650;-0.522;2022-08-01T03:07:05;100943.60;;;18.80
68911;BMP180;55953;51.650;-0.522;2022-08-01T03:09:38;100942.20;;;18.74
68911;BMP180;55953;51.650;-0.522;2022-08-01T03:12:18;100938.40;;;18.72
68911;BMP180;55953;51.650;-0.522;2022-08-01T03:14:49;100945.80;;;18.70
68911;BMP180;55953;51.650;-0.522;2022-08-01T03:17:22;100946.60;;;18.70
68911;BMP180;55953;51.650;-0.522;2022-08-01T03:19:53;100951.80;;;18.72
68911;BMP180;55953;51.650;-0.522;2022-08-01T03:22:24;100952.80;;;18.80
68911;BMP180;55953;51.650;-0.522;2022-08-01T03:24:54;100961.00;;;18.80
68911;BMP180;55953;51.650;-0.522;2022-08-01T03:27:24;100958.60;;;18.70
68911;BMP180;55953;51.650;-0.522;2022-08-01T03:29:55;100960.60;;;18.70
68911;BMP180;55953;51.650;-0.522;2022-08-01T03:32:26;100960.40;;;18.62
68911;BMP180;55953;51.650;-0.522;2022-08-01T03:34:54;100957.80;;;18.60
68911;BMP180;55953;51.650;-0.522;2022-08-01T03:37:45;100954.40;;;18.60
68911;BMP180;55953;51.650;-0.522;2022-08-01T03:41:09;100959.40;;;18.60
68911;BMP180;55953;51.650;-0.522;2022-08-01T03:43:40;100958.40;;;18.60
68911;BMP180;55953;51.650;-0.522;2022-08-01T03:46:24;100955.60;;;18.60
68911;BMP180;55953;51.650;-0.522;2022-08-01T03:48:58;100948.40;;;18.54
68911;BMP180;55953;51.650;-0.522;2022-08-01T03:51:27;100949.20;;;18.50
68911;BMP180;55953;51.650;-0.522;2022-08-01T03:54:00;100947.20;;;18.50
68911;BMP180;55953;51.650;-0.522;2022-08-01T03:56:30;100947.00;;;18.58
68911;BMP180;55953;51.650;-0.522;2022-08-01T03:59:01;100939.20;;;18.60
68911;BMP180;55953;51.650;-0.522;2022-08-01T04:01:31;100939.00;;;18.62
68911;BMP180;55953;51.650;-0.522;2022-08-01T04:04:00;100937.80;;;18.68
68911;BMP180;55953;51.650;-0.522;2022-08-01T04:06:29;100938.60;;;18.62
68911;BMP180;55953;51.650;-0.522;2022-08-01T04:08:59;100939.20;;;18.70
68911;BMP180;55953;51.650;-0.522;2022-08-01T04:11:28;100942.20;;;18.60
68911;BMP180;55953;51.650;-0.522;2022-08-01T04:13:55;100944.00;;;18.60
68911;BMP180;55953;51.650;-0.522;2022-08-01T04:16:25;100943.00;;;18.60
68911;BMP180;55953;51.650;-0.522;2022-08-01T04:18:53;100941.20;;;18.60
68911;BMP180;55953;51.650;-0.522;2022-08-01T04:21:25;100935.60;;;18.60
68911;BMP180;55953;51.650;-0.522;2022-08-01T04:24:03;100937.40;;;18.60
68911;BMP180;55953;51.650;-0.522;2022-08-01T04:26:36;100938.00;;;18.60
68911;BMP180;55953;51.650;-0.522;2022-08-01T04:29:06;100939.80;;;18.50
68911;BMP180;55953;51.650;-0.522;2022-08-01T04:31:36;100944.20;;;18.48
68911;BMP180;55953;51.650;-0.522;2022-08-01T04:34:07;100947.60;;;18.50
68911;BMP180;55953;51.650;-0.522;2022-08-01T04:36:38;100943.80;;;18.50
68911;BMP180;55953;51.650;-0.522;2022-08-01T04:39:10;100952.00;;;18.60
68911;BMP180;55953;51.650;-0.522;2022-08-01T04:41:40;100955.00;;;18.60
68911;BMP180;55953;51.650;-0.522;2022-08-01T04:44:08;100956.80;;;18.52
68911;BMP180;55953;51.650;-0.522;2022-08-01T04:46:37;100958.20;;;18.50
68911;BMP180;55953;51.650;-0.522;2022-08-01T04:49:09;100958.40;;;18.50
68911;BMP180;55953;51.650;-0.522;2022-08-01T04:51:53;100961.20;;;18.50
68911;BMP180;55953;51.650;-0.522;2022-08-01T04:54:31;100957.40;;;18.50
68911;BMP180;55953;51.650;-0.522;2022-08-01T04:57:05;100961.20;;;18.60
68911;BMP180;55953;51.650;-0.522;2022-08-01T04:59:36;100959.00;;;18.68
68911;BMP180;55953;51.650;-0.522;2022-08-01T05:02:18;100954.60;;;18.70
68911;BMP180;55953;51.650;-0.522;2022-08-01T05:04:46;100958.00;;;18.70
68911;BMP180;55953;51.650;-0.522;2022-08-01T05:07:15;100963.20;;;18.70
68911;BMP180;55953;51.650;-0.522;2022-08-01T05:09:43;100964.60;;;18.60
68911;BMP180;55953;51.650;-0.522;2022-08-01T05:12:13;100964.00;;;18.60
68911;BMP180;55953;51.650;-0.522;2022-08-01T05:14:41;100959.00;;;18.70
68911;BMP180;55953;51.650;-0.522;2022-08-01T05:17:10;100966.40;;;18.70
68911;BMP180;55953;51.650;-0.522;2022-08-01T05:19:40;100967.40;;;18.70
68911;BMP180;55953;51.650;-0.522;2022-08-01T05:22:09;100971.60;;;18.64
68911;BMP180;55953;51.650;-0.522;2022-08-01T05:24:38;100975.20;;;18.70
68911;BMP180;55953;51.650;-0.522;2022-08-01T05:27:08;100973.20;;;18.80
68911;BMP180;55953;51.650;-0.522;2022-08-01T05:29:39;100972.60;;;18.88
68911;BMP180;55953;51.650;-0.522;2022-08-01T05:32:11;100975.60;;;18.80
68911;BMP180;55953;51.650;-0.522;2022-08-01T05:34:39;100970.00;;;18.80
68911;BMP180;55953;51.650;-0.522;2022-08-01T05:37:07;100973.00;;;18.82
68911;BMP180;55953;51.650;-0.522;2022-08-01T05:39:35;100969.20;;;18.90
68911;BMP180;55953;51.650;-0.522;2022-08-01T05:42:03;100966.60;;;19.00
68911;BMP180;55953;51.650;-0.522;2022-08-01T05:44:32;100967.40;;;19.10
68911;BMP180;55953;51.650;-0.522;2022-08-01T05:46:59;100969.00;;;19.30
68911;BMP180;55953;51.650;-0.522;2022-08-01T05:49:27;100967.40;;;19.38
68911;BMP180;55953;51.650;-0.522;2022-08-01T05:51:55;100969.20;;;19.42
68911;BMP180;55953;51.650;-0.522;2022-08-01T05:54:23;100971.60;;;19.60
68911;BMP180;55953;51.650;-0.522;2022-08-01T05:56:51;100973.60;;;19.70
68911;BMP180;55953;51.650;-0.522;2022-08-01T05:59:19;100973.20;;;19.70
68911;BMP180;55953;51.650;-0.522;2022-08-01T06:01:48;100966.40;;;19.82
68911;BMP180;55953;51.650;-0.522;2022-08-01T06:04:16;100960.40;;;19.90
68911;BMP180;55953;51.650;-0.522;2022-08-01T06:06:44;100969.40;;;20.00
68911;BMP180;55953;51.650;-0.522;2022-08-01T06:09:12;100972.00;;;20.10
68911;BMP180;55953;51.650;-0.522;2022-08-01T06:11:39;100971.20;;;20.10
68911;BMP180;55953;51.650;-0.522;2022-08-01T06:14:07;100971.00;;;20.00
68911;BMP180;55953;51.650;-0.522;2022-08-01T06:16:35;100969.60;;;19.90
68911;BMP180;55953;51.650;-0.522;2022-08-01T06:19:03;100967.60;;;19.82
68911;BMP180;55953;51.650;-0.522;2022-08-01T06:21:30;100976.20;;;19.80
68911;BMP180;55953;51.650;-0.522;2022-08-01T06:23:58;100974.40;;;19.80
68911;BMP180;55953;51.650;-0.522;2022-08-01T06:26:26;100978.20;;;19.70
68911;BMP180;55953;51.650;-0.522;2022-08-01T06:28:54;100981.40;;;19.66
68911;BMP180;55953;51.650;-0.522;2022-08-01T06:31:22;100974.80;;;19.60
68911;BMP180;55953;51.650;-0.522;2022-08-01T06:33:49;100974.40;;;19.60
68911;BMP180;55953;51.650;-0.522;2022-08-01T06:36:17;100974.60;;;19.70
68911;BMP180;55953;51.650;-0.522;2022-08-01T06:38:45;100971.20;;;19.78
68911;BMP180;55953;51.650;-0.522;2022-08-01T06:41:13;100971.00;;;19.84
68911;BMP180;55953;51.650;-0.522;2022-08-01T06:43:40;100974.60;;;19.90
68911;BMP180;55953;51.650;-0.522;2022-08-01T06:46:08;100976.40;;;19.90
68911;BMP180;55953;51.650;-0.522;2022-08-01T06:48:36;100977.40;;;19.90
68911;BMP180;55953;51.650;-0.522;2022-08-01T06:51:06;100982.40;;;19.90
68911;BMP180;55953;51.650;-0.522;2022-08-01T06:53:41;100982.60;;;19.90
68911;BMP180;55953;51.650;-0.522;2022-08-01T06:56:10;100986.60;;;20.00
68911;BMP180;55953;51.650;-0.522;2022-08-01T06:58:39;100986.00;;;20.00
68911;BMP180;55953;51.650;-0.522;2022-08-01T07:01:07;100983.20;;;20.10
68911;BMP180;55953;51.650;-0.522;2022-08-01T07:03:36;100988.00;;;20.10
68911;BMP180;55953;51.650;-0.522;2022-08-01T07:06:23;100991.60;;;20.20
68911;BMP180;55953;51.650;-0.522;2022-08-01T07:08:52;100992.40;;;20.30
68911;BMP180;55953;51.650;-0.522;2022-08-01T07:11:23;100992.40;;;20.40
68911;BMP180;55953;51.650;-0.522;2022-08-01T07:13:51;100990.40;;;20.60
68911;BMP180;55953;51.650;-0.522;2022-08-01T07:16:19;100989.00;;;20.70
68911;BMP180;55953;51.650;-0.522;2022-08-01T07:18:46;100988.00;;;20.88
68911;BMP180;55953;51.650;-0.522;2022-08-01T07:21:14;100987.60;;;21.00
68911;BMP180;55953;51.650;-0.522;2022-08-01T07:24:02;100991.40;;;21.10
68911;BMP180;55953;51.650;-0.522;2022-08-01T07:26:43;100990.60;;;21.10
68911;BMP180;55953;51.650;-0.522;2022-08-01T07:29:23;100990.20;;;21.10
68911;BMP180;55953;51.650;-0.522;2022-08-01T07:31:53;100989.60;;;21.20
68911;BMP180;55953;51.650;-0.522;2022-08-01T07:34:22;100994.00;;;21.30
68911;BMP180;55953;51.650;-0.522;2022-08-01T07:36:52;100993.80;;;21.40
68911;BMP180;55953;51.650;-0.522;2022-08-01T07:39:20;100998.80;;;21.40
68911;BMP180;55953;51.650;-0.522;2022-08-01T07:41:48;100998.20;;;21.60
68911;BMP180;55953;51.650;-0.522;2022-08-01T07:44:35;100996.00;;;21.70
68911;BMP180;55953;51.650;-0.522;2022-08-01T07:47:05;100997.40;;;21.80
68911;BMP180;55953;51.650;-0.522;2022-08-01T07:49:33;101003.40;;;21.70
68911;BMP180;55953;51.650;-0.522;2022-08-01T07:52:07;100993.80;;;21.70
68911;BMP180;55953;51.650;-0.522;2022-08-01T07:54:35;100992.20;;;21.80
68911;BMP180;55953;51.650;-0.522;2022-08-01T07:57:04;100995.20;;;22.00
68911;BMP180;55953;51.650;-0.522;2022-08-01T07:59:32;100992.60;;;22.14
68911;BMP180;55953;51.650;-0.522;2022-08-01T08:02:00;100999.80;;;22.30
68911;BMP180;55953;51.650;-0.522;2022-08-01T08:04:29;101002.80;;;22.50
68911;BMP180;55953;51.650;-0.522;2022-08-01T08:06:57;101000.60;;;22.62
68911;BMP180;55953;51.650;-0.522;2022-08-01T08:09:25;101007.40;;;22.60
68911;BMP180;55953;51.650;-0.522;2022-08-01T08:11:53;101004.60;;;22.50
68911;BMP180;55953;51.650;-0.522;2022-08-01T08:14:21;101007.40;;;22.42
68911;BMP180;55953;51.650;-0.522;2022-08-01T08:16:59;101009.80;;;22.60
68911;BMP180;55953;51.650;-0.522;2022-08-01T08:19:29;101004.00;;;22.80
68911;BMP180;55953;51.650;-0.522;2022-08-01T08:22:08;101011.40;;;22.90
68911;BMP180;55953;51.650;-0.522;2022-08-01T08:24:37;101007.00;;;22.94
68911;BMP180;55953;51.650;-0.522;2022-08-01T08:27:14;101006.60;;;23.00
68911;BMP180;55953;51.650;-0.522;2022-08-01T08:29:42;101001.00;;;22.90
68911;BMP180;55953;51.650;-0.522;2022-08-01T08:32:11;101005.80;;;22.80
68911;BMP180;55953;51.650;-0.522;2022-08-01T08:34:39;101009.80;;;22.90
68911;BMP180;55953;51.650;-0.522;2022-08-01T08:37:08;101012.60;;;22.90
68911;BMP180;55953;51.650;-0.522;2022-08-01T08:39:36;101008.40;;;22.90
68911;BMP180;55953;51.650;-0.522;2022-08-01T08:42:10;101011.40;;;23.00
68911;BMP180;55953;51.650;-0.522;2022-08-01T08:44:42;101012.40;;;23.08
68911;BMP180;55953;51.650;-0.522;2022-08-01T08:47:13;101014.40;;;23.10
68911;BMP180;55953;51.650;-0.522;2022-08-01T08:49:51;101008.60;;;23.20
68911;BMP180;55953;51.650;-0.522;2022-08-01T08:52:21;101006.80;;;23.30
68911;BMP180;55953;51.650;-0.522;2022-08-01T08:54:51;101008.00;;;23.30
68911;BMP180;55953;51.650;-0.522;2022-08-01T08:57:20;101001.80;;;23.10
68911;BMP180;55953;51.650;-0.522;2022-08-01T08:59:49;100999.40;;;23.00
68911;BMP180;55953;51.650;-0.522;2022-08-01T09:02:20;101001.40;;;23.10
68911;BMP180;55953;51.650;-0.522;2022-08-01T09:04:49;101001.60;;;23.20
68911;BMP180;55953;51.650;-0.522;2022-08-01T09:07:17;100999.20;;;23.30
68911;BMP180;55953;51.650;-0.522;2022-08-01T09:09:45;101002.20;;;23.40
68911;BMP180;55953;51.650;-0.522;2022-08-01T09:12:18;101008.40;;;23.30
68911;BMP180;55953;51.650;-0.522;2022-08-01T09:14:47;101009.00;;;23.30
68911;BMP180;55953;51.650;-0.522;2022-08-01T09:17:17;101003.00;;;23.30
68911;BMP180;55953;51.650;-0.522;2022-08-01T09:19:50;101000.60;;;23.30
68911;BMP180;55953;51.650;-0.522;2022-08-01T09:22:23;101003.00;;;23.40
68911;BMP180;55953;51.650;-0.522;2022-08-01T09:25:00;101006.20;;;23.50
68911;BMP180;55953;51.650;-0.522;2022-08-01T09:27:28;101000.60;;;23.40
68911;BMP180;55953;51.650;-0.522;2022-08-01T09:30:25;101007.20;;;23.40
68911;BMP180;55953;51.650;-0.522;2022-08-01T09:32:56;101015.40;;;23.30
68911;BMP180;55953;51.650;-0.522;2022-08-01T09:35:32;101015.60;;;23.40
68911;BMP180;55953;51.650;-0.522;2022-08-01T09:40:48;101010.40;;;23.50
68911;BMP180;55953;51.650;-0.522;2022-08-01T09:43:18;101016.00;;;23.50
68911;BMP180;55953;51.650;-0.522;2022-08-01T09:45:48;101005.40;;;23.40
68911;BMP180;55953;51.650;-0.522;2022-08-01T09:48:21;101001.60;;;23.40
68911;BMP180;55953;51.650;-0.522;2022-08-01T09:50:58;101007.00;;;23.28
68911;BMP180;55953;51.650;-0.522;2022-08-01T09:54:01;101014.60;;;23.20
68911;BMP180;55953;51.650;-0.522;2022-08-01T09:56:42;101013.80;;;23.40
68911;BMP180;55953;51.650;-0.522;2022-08-01T09:59:11;101009.20;;;23.50
68911;BMP180;55953;51.650;-0.522;2022-08-01T10:01:49;101014.20;;;23.50
68911;BMP180;55953;51.650;-0.522;2022-08-01T10:04:21;101015.40;;;23.50
68911;BMP180;55953;51.650;-0.522;2022-08-01T10:06:50;101005.20;;;23.68
68911;BMP180;55953;51.650;-0.522;2022-08-01T10:09:33;100999.60;;;23.80
68911;BMP180;55953;51.650;-0.522;2022-08-01T10:12:09;100997.80;;;23.78
68911;BMP180;55953;51.650;-0.522;2022-08-01T10:14:46;100998.40;;;23.90
68911;BMP180;55953;51.650;-0.522;2022-08-01T10:17:19;101002.40;;;24.28
68911;BMP180;55953;51.650;-0.522;2022-08-01T10:19:49;100999.20;;;24.40
68911;BMP180;55953;51.650;-0.522;2022-08-01T10:22:23;101006.80;;;24.50
68911;BMP180;55953;51.650;-0.522;2022-08-01T10:24:55;101007.00;;;24.60
68911;BMP180;55953;51.650;-0.522;2022-08-01T10:27:24;101009.40;;;24.62
68911;BMP180;55953;51.650;-0.522;2022-08-01T10:30:06;101008.00;;;24.80
68911;BMP180;55953;51.650;-0.522;2022-08-01T10:32:51;101006.80;;;24.70
68911;BMP180;55953;51.650;-0.522;2022-08-01T10:35:22;101005.60;;;24.70
68911;BMP180;55953;51.650;-0.522;2022-08-01T10:38:10;101003.40;;;24.70
68911;BMP180;55953;51.650;-0.522;2022-08-01T10:40:42;101006.40;;;24.70
68911;BMP180;55953;51.650;-0.522;2022-08-01T10:43:11;101005.20;;;24.82
68911;BMP180;55953;51.650;-0.522;2022-08-01T10:45:42;101001.80;;;24.90
68911;BMP180;55953;51.650;-0.522;2022-08-01T10:48:43;101000.60;;;24.90
68911;BMP180;55953;51.650;-0.522;2022-08-01T10:51:13;100995.40;;;25.00
68911;BMP180;55953;51.650;-0.522;2022-08-01T10:53:53;100996.40;;;25.10
68911;BMP180;55953;51.650;-0.522;2022-08-01T10:56:24;101001.40;;;25.10
68911;BMP180;55953;51.650;-0.522;2022-08-01T10:59:03;101000.60;;;25.10
68911;BMP180;55953;51.650;-0.522;2022-08-01T11:01:38;100998.00;;;25.20
68911;BMP180;55953;51.650;-0.522;2022-08-01T11:04:14;100997.00;;;25.40
68911;BMP180;55953;51.650;-0.522;2022-08-01T11:07:02;100995.60;;;25.60
68911;BMP180;55953;51.650;-0.522;2022-08-01T11:10:24;100998.60;;;25.74
68911;BMP180;55953;51.650;-0.522;2022-08-01T11:12:51;101001.60;;;26.00
68911;BMP180;55953;51.650;-0.522;2022-08-01T11:15:21;101003.20;;;26.02
68911;BMP180;55953;51.650;-0.522;2022-08-01T11:18:03;100997.20;;;25.90
68911;BMP180;55953;51.650;-0.522;2022-08-01T11:20:35;100997.20;;;25.90
68911;BMP180;55953;51.650;-0.522;2022-08-01T11:23:16;100990.60;;;26.38
68911;BMP180;55953;51.650;-0.522;2022-08-01T11:28:33;100987.60;;;26.60
68911;BMP180;55953;51.650;-0.522;2022-08-01T11:36:17;100974.00;;;26.50
68911;BMP180;55953;51.650;-0.522;2022-08-01T11:41:30;100978.80;;;26.50
68911;BMP180;55953;51.650;-0.522;2022-08-01T11:47:05;100973.00;;;26.46
68911;BMP180;55953;51.650;-0.522;2022-08-01T11:54:57;100976.60;;;26.34
68911;BMP180;55953;51.650;-0.522;2022-08-01T11:57:29;100971.20;;;26.40
68911;BMP180;55953;51.650;-0.522;2022-08-01T12:00:18;100964.80;;;26.56
68911;BMP180;55953;51.650;-0.522;2022-08-01T12:02:47;100959.00;;;26.98
68911;BMP180;55953;51.650;-0.522;2022-08-01T12:05:27;100955.80;;;27.26
68911;BMP180;55953;51.650;-0.522;2022-08-01T12:07:58;100956.00;;;27.54
68911;BMP180;55953;51.650;-0.522;2022-08-01T12:10:33;100956.60;;;27.60
68911;BMP180;55953;51.650;-0.522;2022-08-01T12:13:15;100956.60;;;27.50
68911;BMP180;55953;51.650;-0.522;2022-08-01T12:15:44;100958.80;;;27.60
68911;BMP180;55953;51.650;-0.522;2022-08-01T12:18:13;100956.80;;;27.42
68911;BMP180;55953;51.650;-0.522;2022-08-01T12:20:44;100958.20;;;27.30
68911;BMP180;55953;51.650;-0.522;2022-08-01T12:23:23;100957.80;;;27.10
68911;BMP180;55953;51.650;-0.522;2022-08-01T12:25:52;100950.60;;;26.90
68911;BMP180;55953;51.650;-0.522;2022-08-01T12:28:21;100947.80;;;26.98
68911;BMP180;55953;51.650;-0.522;2022-08-01T12:30:50;100948.00;;;27.18
68911;BMP180;55953;51.650;-0.522;2022-08-01T12:33:20;100939.60;;;27.40
68911;BMP180;55953;51.650;-0.522;2022-08-01T12:35:48;100932.00;;;27.20
68911;BMP180;55953;51.650;-0.522;2022-08-01T12:38:20;100933.40;;;26.92
68911;BMP180;55953;51.650;-0.522;2022-08-01T12:40:52;100936.80;;;26.82
68911;BMP180;55953;51.650;-0.522;2022-08-01T12:43:22;100936.00;;;27.00
68911;BMP180;55953;51.650;-0.522;2022-08-01T12:45:58;100929.60;;;27.00
68911;BMP180;55953;51.650;-0.522;2022-08-01T12:48:30;100922.40;;;26.90
68911;BMP180;55953;51.650;-0.522;2022-08-01T12:50:59;100920.80;;;26.90
68911;BMP180;55953;51.650;-0.522;2022-08-01T12:53:34;100917.20;;;27.00
68911;BMP180;55953;51.650;-0.522;2022-08-01T12:56:09;100912.40;;;27.00
68911;BMP180;55953;51.650;-0.522;2022-08-01T12:58:40;100916.60;;;26.98
68911;BMP180;55953;51.650;-0.522;2022-08-01T13:01:10;100916.80;;;26.90
68911;BMP180;55953;51.650;-0.522;2022-08-01T13:03:40;100917.40;;;26.88
68911;BMP180;55953;51.650;-0.522;2022-08-01T13:06:14;100919.60;;;26.88
68911;BMP180;55953;51.650;-0.522;2022-08-01T13:08:44;100917.40;;;27.00
68911;BMP180;55953;51.650;-0.522;2022-08-01T13:11:14;100916.60;;;27.00
68911;BMP180;55953;51.650;-0.522;2022-08-01T13:13:51;100909.80;;;27.00
68911;BMP180;55953;51.650;-0.522;2022-08-01T13:16:24;100908.60;;;27.30
68911;BMP180;55953;51.650;-0.522;2022-08-01T13:19:13;100906.40;;;27.60
68911;BMP180;55953;51.650;-0.522;2022-08-01T13:21:54;100905.20;;;27.90
68911;BMP180;55953;51.650;-0.522;2022-08-01T13:24:28;100902.60;;;28.10
68911;BMP180;55953;51.650;-0.522;2022-08-01T13:27:02;100905.20;;;28.24
68911;BMP180;55953;51.650;-0.522;2022-08-01T13:29:38;100910.00;;;28.50
68911;BMP180;55953;51.650;-0.522;2022-08-01T13:35:07;100902.40;;;29.10
68911;BMP180;55953;51.650;-0.522;2022-08-01T13:37:37;100899.80;;;29.30
68911;BMP180;55953;51.650;-0.522;2022-08-01T13:40:08;100902.60;;;29.48
68911;BMP180;55953;51.650;-0.522;2022-08-01T13:42:36;100900.40;;;29.60
68911;BMP180;55953;51.650;-0.522;2022-08-01T13:45:06;100900.80;;;29.60
68911;BMP180;55953;51.650;-0.522;2022-08-01T13:47:43;100892.60;;;29.58
68911;BMP180;55953;51.650;-0.522;2022-08-01T13:50:31;100892.80;;;29.60
68911;BMP180;55953;51.650;-0.522;2022-08-01T13:52:59;100883.80;;;29.50
68911;BMP180;55953;51.650;-0.522;2022-08-01T13:55:27;100879.00;;;29.28
68911;BMP180;55953;51.650;-0.522;2022-08-01T13:58:02;100881.80;;;29.00
68911;BMP180;55953;51.650;-0.522;2022-08-01T14:00:31;100883.80;;;28.90
68911;BMP180;55953;51.650;-0.522;2022-08-01T14:02:58;100879.20;;;28.70
68911;BMP180;55953;51.650;-0.522;2022-08-01T14:05:26;100877.60;;;28.70
68911;BMP180;55953;51.650;-0.522;2022-08-01T14:07:54;100874.60;;;28.90
68911;BMP180;55953;51.650;-0.522;2022-08-01T14:10:24;100871.60;;;29.00
68911;BMP180;55953;51.650;-0.522;2022-08-01T14:12:52;100871.40;;;28.90
68911;BMP180;55953;51.650;-0.522;2022-08-01T14:15:24;100867.40;;;29.00
68911;BMP180;55953;51.650;-0.522;2022-08-01T14:18:08;100858.40;;;29.10
68911;BMP180;55953;51.650;-0.522;2022-08-01T14:20:38;100857.60;;;29.20
68911;BMP180;55953;51.650;-0.522;2022-08-01T14:23:06;100863.40;;;29.20
68911;BMP180;55953;51.650;-0.522;2022-08-01T14:25:40;100857.60;;;29.10
68911;BMP180;55953;51.650;-0.522;2022-08-01T14:28:28;100857.00;;;29.30
68911;BMP180;55953;51.650;-0.522;2022-08-01T14:30:58;100859.00;;;29.44
68911;BMP180;55953;51.650;-0.522;2022-08-01T14:33:27;100857.60;;;29.50
68911;BMP180;55953;51.650;-0.522;2022-08-01T14:35:55;100858.20;;;29.50
68911;BMP180;55953;51.650;-0.522;2022-08-01T14:38:43;100854.60;;;29.30
68911;BMP180;55953;51.650;-0.522;2022-08-01T14:41:16;100847.80;;;29.30
68911;BMP180;55953;51.650;-0.522;2022-08-01T14:43:44;100845.40;;;29.20
68911;BMP180;55953;51.650;-0.522;2022-08-01T14:46:12;100846.00;;;29.20
68911;BMP180;55953;51.650;-0.522;2022-08-01T14:48:40;100849.00;;;29.02